Marshall Don Hunter Sr Airport Marshall US
ICAO: PADM
IATA:
Category: Medium
Scheduled Services:

Elevation: 103 ft
TransAlt. 18000 ft.

Airport Communications:
ANCHORAGE CNTR:132.3
CTAF:122.9
ST MARYS RDO:124

PADM Zoom In..

If you have problems with the map follow the link
https://www.worldairports.se/pages/airport.php?
ICAO=PADM

Runways:

(A) RW 07 length 3200 ft width 100 ft
---- / hdg 70

(B) RW 25 length 3200 ft width 100 ft
---- / hdg 250

Location; PADM
Day. 14 / Time. 11.02 Zulu
* Altimeter: 29.74
* Temperature: -08° c. -17.6°f.
* Wind from: 050° Speed 15 kn with Gusts up to 21 kn.
Dewpoint: -11° c.
Visibility: 10 Statute Miles.
Clouds: Overcast 2700 ft.

PADM 141102Z AUTO 05015G21KT 10SM OVC027 M08/M11 A2974 RMK AO2 SLP080 T10781106 FZRANO


Wind From 050°
Speed 15 kn.

 
 
jpsmedia.com for Web Design worldairports.se 2018   terms of use